createdAt,value
2022-11-24T00:01:16.738Z,97269.59
2022-11-24T00:04:22.776Z,97279.59
2022-11-24T00:07:28.102Z,97287.34
2022-11-24T00:10:33.615Z,97287.75
2022-11-24T00:13:39.064Z,97291.34
2022-11-24T00:16:42.432Z,97292.78
2022-11-24T00:19:45.790Z,97298.41
2022-11-24T00:22:50.491Z,97289.31
2022-11-24T00:25:53.718Z,97312.84
2022-11-24T00:28:59.118Z,97308.97
2022-11-24T00:32:05.891Z,97310.66
2022-11-24T00:35:09.980Z,97323.00
2022-11-24T00:38:15.510Z,97319.38
2022-11-24T00:41:18.753Z,97334.59
2022-11-24T00:44:24.036Z,97329.09
2022-11-24T00:47:28.941Z,97340.81
2022-11-24T00:50:32.124Z,97341.81
2022-11-24T00:53:37.222Z,97341.84
2022-11-24T00:56:40.400Z,97339.59
2022-11-24T00:59:43.645Z,97344.41
2022-11-24T01:02:47.088Z,97349.13
2022-11-24T01:05:50.434Z,97346.94
2022-11-24T01:08:57.327Z,97349.28
2022-11-24T01:12:04.322Z,97359.09
2022-11-24T01:15:09.115Z,97361.66
2022-11-24T01:18:13.255Z,97364.59
2022-11-24T01:21:16.994Z,97365.44
2022-11-24T01:24:22.060Z,97362.63
2022-11-24T01:27:25.219Z,97366.44
2022-11-24T01:30:28.444Z,97373.63
2022-11-24T01:33:33.910Z,97381.56
2022-11-24T01:36:37.174Z,97394.28
2022-11-24T01:39:41.795Z,97396.47
2022-11-24T01:42:49.317Z,97387.69
2022-11-24T01:45:52.866Z,97401.53
2022-11-24T01:49:02.241Z,97405.94
2022-11-24T01:52:09.879Z,97404.16
2022-11-24T01:55:19.518Z,97411.66
2022-11-24T01:58:28.064Z,97407.25
2022-11-24T02:01:33.138Z,97406.63
2022-11-24T02:04:37.669Z,97411.16
2022-11-24T02:07:41.322Z,97399.53
2022-11-24T02:10:47.665Z,97423.66
2022-11-24T02:13:52.776Z,97427.69
2022-11-24T02:16:56.066Z,97424.03
2022-11-24T02:20:01.987Z,97421.88
2022-11-24T02:23:15.822Z,97426.13
2022-11-24T02:26:28.349Z,97428.56
2022-11-24T02:29:32.504Z,97433.50
2022-11-24T02:32:40.098Z,97424.88
2022-11-24T02:35:44.881Z,97422.75
2022-11-24T02:38:48.425Z,97428.97
2022-11-24T02:41:55.783Z,97431.91
2022-11-24T02:45:01.550Z,97424.19
2022-11-24T02:48:08.988Z,97430.78
2022-11-24T02:51:12.375Z,97437.94
2022-11-24T02:54:15.672Z,97379.63
2022-11-24T02:57:20.698Z,97444.06
2022-11-24T03:00:24.325Z,97440.44
2022-11-24T03:03:28.174Z,97441.41
2022-11-24T03:06:31.909Z,97447.69
2022-11-24T03:09:35.526Z,97449.19
2022-11-24T03:12:40.230Z,97425.44
2022-11-24T03:15:43.612Z,97434.41
2022-11-24T03:18:48.144Z,97454.44
2022-11-24T03:21:51.493Z,97396.78
2022-11-24T03:24:55.702Z,97464.72
2022-11-24T03:28:00.625Z,97468.13
2022-11-24T03:31:04.160Z,97447.47
2022-11-24T03:34:07.635Z,97475.44
2022-11-24T03:37:10.914Z,97470.06
2022-11-24T03:40:14.919Z,97471.19
2022-11-24T03:43:20.301Z,97463.59
2022-11-24T03:46:24.126Z,97456.84
2022-11-24T03:49:27.830Z,97480.06
2022-11-24T03:52:31.196Z,97480.34
2022-11-24T03:55:36.262Z,97481.75
2022-11-24T03:58:40.932Z,97469.94
2022-11-24T04:01:45.564Z,97483.41
2022-11-24T04:04:50.704Z,97493.22
2022-11-24T04:07:57.600Z,97496.69
2022-11-24T04:11:00.981Z,97496.00
2022-11-24T04:14:07.915Z,97501.66
2022-11-24T04:17:15.766Z,97504.19
2022-11-24T04:20:19.327Z,97501.00
2022-11-24T04:23:22.938Z,97503.16
2022-11-24T04:26:26.150Z,97511.03
2022-11-24T04:29:33.418Z,97516.81
2022-11-24T04:35:01.700Z,97532.28
2022-11-24T04:38:05.292Z,97531.34
2022-11-24T04:41:08.471Z,97536.13
2022-11-24T04:44:12.030Z,97543.78
2022-11-24T04:47:17.968Z,97498.38
2022-11-24T04:50:22.603Z,97544.44
2022-11-24T04:53:25.804Z,97554.41
2022-11-24T04:56:29.100Z,97548.81
2022-11-24T04:59:35.986Z,97555.63
2022-11-24T05:02:40.316Z,97563.16
2022-11-24T05:05:45.517Z,97555.59
2022-11-24T05:08:49.967Z,97572.81
2022-11-24T05:11:53.460Z,97572.34
2022-11-24T05:14:56.757Z,97584.44
2022-11-24T05:18:00.176Z,97576.72
2022-11-24T05:21:05.763Z,97584.63
2022-11-24T05:24:09.302Z,97593.69
2022-11-24T05:27:13.690Z,97602.31
2022-11-24T05:30:17.203Z,97594.66
2022-11-24T05:33:23.066Z,97606.53
2022-11-24T05:36:45.143Z,97606.13
2022-11-24T05:39:48.379Z,97615.81
2022-11-24T05:42:51.677Z,97608.66
2022-11-24T05:45:54.956Z,97590.22
2022-11-24T05:48:58.245Z,97562.91
2022-11-24T05:52:04.030Z,97617.00
2022-11-24T05:55:10.499Z,97620.25
2022-11-24T05:58:13.896Z,97621.41
2022-11-24T06:01:17.498Z,97622.88
2022-11-24T06:04:20.804Z,97624.44
2022-11-24T06:07:25.884Z,97621.91
2022-11-24T06:10:29.682Z,97614.59
2022-11-24T06:13:33.108Z,97624.13
2022-11-24T06:16:38.688Z,97626.13
2022-11-24T06:19:45.534Z,97614.53
2022-11-24T06:22:50.302Z,97631.66
2022-11-24T06:25:53.576Z,97633.59
2022-11-24T06:28:57.671Z,97629.44
2022-11-24T06:32:01.147Z,97639.28
2022-11-24T06:35:05.323Z,97647.69
2022-11-24T06:38:10.019Z,97646.09
2022-11-24T06:41:14.876Z,97643.53
2022-11-24T06:44:18.762Z,97631.44
2022-11-24T06:47:31.334Z,97640.53
2022-11-24T06:50:34.589Z,97652.84
2022-11-24T06:53:40.018Z,97653.91
2022-11-24T06:56:43.374Z,97654.94
2022-11-24T06:59:46.778Z,97656.81
2022-11-24T07:02:50.092Z,97662.63
2022-11-24T07:05:58.277Z,97663.31
2022-11-24T07:09:02.711Z,97658.22
2022-11-24T07:12:06.933Z,97667.03
2022-11-24T07:15:11.114Z,97666.94
2022-11-24T07:18:14.797Z,97631.00
2022-11-24T07:21:18.451Z,97643.94
2022-11-24T07:24:23.155Z,97674.47
2022-11-24T07:27:27.695Z,97654.16
2022-11-24T07:30:31.133Z,97685.22
2022-11-24T07:33:34.519Z,97690.56
2022-11-24T07:36:37.710Z,97686.84
2022-11-24T07:39:42.327Z,97684.31
2022-11-24T07:42:45.502Z,97646.06
2022-11-24T07:45:53.175Z,97688.16
2022-11-24T07:48:56.410Z,97688.25
2022-11-24T07:52:00.728Z,97698.13
2022-11-24T07:55:07.720Z,97688.75
2022-11-24T07:58:11.051Z,97687.63
2022-11-24T08:01:16.617Z,97682.38
2022-11-24T08:04:20.074Z,97703.31
2022-11-24T08:07:23.429Z,97640.66
2022-11-24T08:10:28.356Z,97694.34
2022-11-24T08:13:31.614Z,97698.69
2022-11-24T08:16:35.007Z,97705.59
2022-11-24T08:19:39.498Z,97693.53
2022-11-24T08:22:45.734Z,97707.09
2022-11-24T08:25:54.223Z,97678.41
2022-11-24T08:29:00.564Z,97697.72
2022-11-24T08:32:04.172Z,97651.13
2022-11-24T08:35:13.926Z,97696.19
2022-11-24T08:38:17.538Z,97694.03
2022-11-24T08:41:22.152Z,97700.88
2022-11-24T08:44:25.444Z,97697.31
2022-11-24T08:47:28.894Z,97694.56
2022-11-24T08:50:32.149Z,97696.72
2022-11-24T08:53:35.485Z,97702.50
2022-11-24T08:56:40.460Z,97691.78
2022-11-24T08:59:43.761Z,97688.91
2022-11-24T09:02:47.126Z,97698.13
2022-11-24T09:05:52.948Z,97703.56
2022-11-24T09:09:00.113Z,97710.50
2022-11-24T09:12:07.497Z,97723.28
2022-11-24T09:15:16.382Z,97724.31
2022-11-24T09:18:19.789Z,97719.50
2022-11-24T09:21:23.746Z,97724.72
2022-11-24T09:24:27.127Z,97718.91
2022-11-24T09:27:31.740Z,97733.53
2022-11-24T09:30:35.050Z,97730.38
2022-11-24T09:33:39.246Z,97746.69
2022-11-24T09:36:42.582Z,97747.97
2022-11-24T09:39:45.820Z,97745.78
2022-11-24T09:43:01.761Z,97755.19
2022-11-24T09:46:10.117Z,97756.47
2022-11-24T09:49:16.785Z,97771.63
2022-11-24T09:52:26.679Z,97721.00
2022-11-24T09:55:37.870Z,97768.19
2022-11-24T09:58:48.330Z,97775.00
2022-11-24T10:01:52.979Z,97775.00
2022-11-24T10:04:56.679Z,97773.66
2022-11-24T10:08:11.880Z,97783.94
2022-11-24T10:11:20.690Z,97781.25
2022-11-24T10:15:15.233Z,97771.63
2022-11-24T10:18:38.566Z,97777.84
2022-11-24T10:21:54.859Z,97778.34
2022-11-24T10:25:19.737Z,97778.56
2022-11-24T10:28:23.313Z,97777.63
2022-11-24T10:35:15.069Z,97750.00
2022-11-24T10:38:32.806Z,97784.00
2022-11-24T10:41:45.075Z,97792.56
2022-11-24T10:45:02.706Z,97791.75
2022-11-24T10:48:08.849Z,97793.25
2022-11-24T10:51:41.174Z,97792.00
2022-11-24T10:54:56.747Z,97777.19
2022-11-24T10:58:16.291Z,97792.66
2022-11-24T11:01:25.203Z,97790.34
2022-11-24T11:04:31.069Z,97792.44
2022-11-24T11:07:35.952Z,97793.81
2022-11-24T11:10:40.303Z,97758.59
2022-11-24T11:14:01.634Z,97794.13
2022-11-24T11:17:42.315Z,97794.91
2022-11-24T11:20:52.363Z,97789.44
2022-11-24T11:23:57.502Z,97787.31
2022-11-24T11:27:02.338Z,97786.53
2022-11-24T11:34:08.431Z,97787.19
2022-11-24T11:37:16.782Z,97783.50
2022-11-24T11:40:25.864Z,97770.06
2022-11-24T11:43:35.460Z,97775.75
2022-11-24T11:46:39.727Z,97784.38
2022-11-24T11:49:43.755Z,97787.88
2022-11-24T11:53:06.337Z,97772.09
2022-11-24T11:56:22.357Z,97791.41
2022-11-24T11:59:53.484Z,97723.41
2022-11-24T12:03:38.658Z,97771.66
2022-11-24T12:07:02.245Z,97785.97
2022-11-24T12:10:16.523Z,97791.47
2022-11-24T12:13:42.796Z,97780.34
2022-11-24T12:16:56.648Z,97792.66
2022-11-24T12:20:15.362Z,97797.72
2022-11-24T12:23:28.665Z,97644.22
2022-11-24T12:26:39.247Z,97770.66
2022-11-24T12:30:09.233Z,97803.38
2022-11-24T12:33:26.544Z,97808.69
2022-11-24T12:36:49.512Z,97794.81
2022-11-24T12:40:03.831Z,97811.69
2022-11-24T12:43:15.978Z,97801.06
2022-11-24T12:46:28.695Z,97793.22
2022-11-24T12:49:40.384Z,97782.84
2022-11-24T12:52:52.868Z,97793.56
2022-11-24T12:56:05.775Z,97788.06
2022-11-24T12:59:22.417Z,97796.06
2022-11-24T13:02:39.465Z,97798.66
2022-11-24T13:05:50.332Z,97797.88
2022-11-24T13:08:53.890Z,97800.75
2022-11-24T13:12:11.107Z,97799.25
2022-11-24T13:15:44.544Z,97808.88
2022-11-24T13:18:55.944Z,97819.50
2022-11-24T13:22:10.907Z,97803.31
2022-11-24T13:25:20.139Z,97820.94
2022-11-24T13:29:06.186Z,97825.03
2022-11-24T13:33:01.394Z,97829.91
2022-11-24T13:36:55.164Z,97825.66
2022-11-24T13:40:07.743Z,97843.78
2022-11-24T13:43:26.446Z,97842.09
2022-11-24T13:47:03.244Z,97845.38
2022-11-24T13:50:23.740Z,97860.56
2022-11-24T13:53:36.125Z,97853.97
2022-11-24T13:56:44.525Z,97849.56
2022-11-24T13:59:48.814Z,97852.06
2022-11-24T14:02:54.117Z,97855.50
2022-11-24T14:05:59.924Z,97862.38
2022-11-24T14:09:25.193Z,97862.31
2022-11-24T14:12:33.623Z,97862.97
2022-11-24T14:15:37.166Z,97863.25
2022-11-24T14:18:42.670Z,97877.00
2022-11-24T14:21:46.554Z,97875.44
2022-11-24T14:24:56.433Z,97867.81
2022-11-24T14:28:00.827Z,97837.88
2022-11-24T14:31:09.414Z,97879.97
2022-11-24T14:34:19.345Z,97864.56
2022-11-24T14:37:23.351Z,97877.38
2022-11-24T14:40:45.035Z,97876.03
2022-11-24T14:43:49.091Z,97889.34
2022-11-24T14:47:01.840Z,97903.88
2022-11-24T14:50:12.708Z,97899.19
2022-11-24T14:53:23.274Z,97902.94
2022-11-24T14:56:33.698Z,97913.38
2022-11-24T14:59:38.246Z,97907.19
2022-11-24T15:02:48.333Z,97906.50
2022-11-24T15:05:55.113Z,97910.09
2022-11-24T15:08:58.429Z,97919.59
2022-11-24T15:12:09.025Z,97918.25
2022-11-24T15:15:20.333Z,97920.09
2022-11-24T15:18:28.038Z,97928.88
2022-11-24T15:21:33.364Z,97921.25
2022-11-24T15:24:50.408Z,97931.56
2022-11-24T15:27:55.457Z,97947.88
2022-11-24T15:31:02.876Z,97961.28
2022-11-24T15:34:06.895Z,97949.88
2022-11-24T15:37:10.852Z,97956.66
2022-11-24T15:40:15.197Z,97959.84
2022-11-24T15:43:26.921Z,97963.84
2022-11-24T15:46:38.191Z,97967.69
2022-11-24T15:49:43.207Z,97965.25
2022-11-24T15:52:47.214Z,97968.25
2022-11-24T15:55:50.628Z,97971.31
2022-11-24T15:58:55.694Z,97976.19
2022-11-24T16:01:59.184Z,97980.91
2022-11-24T16:05:02.480Z,97983.34
2022-11-24T16:08:07.192Z,97990.44
2022-11-24T16:11:10.843Z,97996.75
2022-11-24T16:14:15.701Z,98003.25
2022-11-24T16:17:19.146Z,98004.34
2022-11-24T16:20:25.112Z,98014.31
2022-11-24T16:23:29.298Z,98010.81
2022-11-24T16:26:32.550Z,98018.41
2022-11-24T16:29:39.010Z,98017.03
2022-11-24T16:35:13.074Z,98013.50
2022-11-24T16:38:17.270Z,98012.53
2022-11-24T16:41:25.361Z,98020.47
2022-11-24T16:44:35.543Z,98024.34
2022-11-24T16:47:41.004Z,98025.31
2022-11-24T16:50:45.525Z,98027.75
2022-11-24T16:53:48.802Z,98007.47
2022-11-24T16:56:52.257Z,98028.69
2022-11-24T16:59:55.361Z,98028.88
2022-11-24T17:02:58.684Z,98037.97
2022-11-24T17:06:04.401Z,98041.72
2022-11-24T17:09:07.983Z,98031.63
2022-11-24T17:12:11.090Z,98040.69
2022-11-24T17:15:32.585Z,98042.47
2022-11-24T17:18:38.600Z,98040.22
2022-11-24T17:21:43.098Z,98047.69
2022-11-24T17:24:46.526Z,98048.59
2022-11-24T17:27:49.610Z,98047.22
2022-11-24T17:30:52.711Z,98041.97
2022-11-24T17:33:58.066Z,98030.50
2022-11-24T17:37:02.931Z,98024.84
2022-11-24T17:40:28.525Z,98052.41
2022-11-24T17:43:32.669Z,98051.16
2022-11-24T17:46:37.443Z,98034.34
2022-11-24T17:49:41.312Z,98062.34
2022-11-24T17:52:46.037Z,98065.38
2022-11-24T17:55:49.375Z,98030.34
2022-11-24T17:58:55.136Z,98077.34
2022-11-24T18:01:58.389Z,98074.03
2022-11-24T18:05:01.998Z,98062.50
2022-11-24T18:08:07.103Z,98067.53
2022-11-24T18:11:12.902Z,98091.53
2022-11-24T18:14:18.189Z,98077.19
2022-11-24T18:17:21.466Z,98083.00
2022-11-24T18:20:26.555Z,98076.75
2022-11-24T18:23:35.580Z,98042.91
2022-11-24T18:26:40.040Z,98081.44
2022-11-24T18:29:43.229Z,98083.28
2022-11-24T18:32:46.309Z,98090.13
2022-11-24T18:35:57.180Z,98085.03
2022-11-24T18:39:02.975Z,98068.81
2022-11-24T18:42:06.292Z,98087.31
2022-11-24T18:45:10.336Z,98087.38
2022-11-24T18:48:13.498Z,98092.25
2022-11-24T18:51:16.711Z,98089.88
2022-11-24T18:54:21.354Z,98089.47
2022-11-24T18:57:24.649Z,98095.72
2022-11-24T19:00:28.090Z,98103.34
2022-11-24T19:03:31.381Z,98089.63
2022-11-24T19:06:36.507Z,98092.91
2022-11-24T19:09:41.001Z,98065.00
2022-11-24T19:12:44.767Z,98095.41
2022-11-24T19:15:49.478Z,98101.44
2022-11-24T19:18:54.553Z,98098.22
2022-11-24T19:21:57.815Z,98100.88
2022-11-24T19:25:03.792Z,98096.69
2022-11-24T19:28:09.057Z,98113.56
2022-11-24T19:31:17.024Z,98113.44
2022-11-24T19:34:25.608Z,98113.03
2022-11-24T19:37:29.306Z,98105.69
2022-11-24T19:40:33.860Z,98099.13
2022-11-24T19:43:39.197Z,98099.59
2022-11-24T19:46:43.271Z,98108.13
2022-11-24T19:49:46.810Z,98114.03
2022-11-24T19:52:50.062Z,98116.88
2022-11-24T19:55:54.655Z,98119.16
2022-11-24T19:58:58.246Z,98112.13
2022-11-24T20:02:02.612Z,98114.72
2022-11-24T20:05:06.631Z,98114.81
2022-11-24T20:08:10.038Z,98112.94
2022-11-24T20:11:16.354Z,98093.16
2022-11-24T20:14:22.111Z,98117.50
2022-11-24T20:17:34.523Z,98117.44
2022-11-24T20:20:40.572Z,98112.03
2022-11-24T20:23:49.252Z,98122.09
2022-11-24T20:27:00.957Z,98109.50
2022-11-24T20:30:05.119Z,98126.59
2022-11-24T20:33:08.429Z,98117.81
2022-11-24T20:36:13.510Z,98116.03
2022-11-24T20:39:19.984Z,98117.84
2022-11-24T20:42:25.237Z,98118.97
2022-11-24T20:45:39.361Z,98118.31
2022-11-24T20:48:47.626Z,98113.09
2022-11-24T20:51:54.541Z,98111.25
2022-11-24T20:55:00.348Z,98115.75
2022-11-24T20:58:04.874Z,98120.41
2022-11-24T21:01:09.980Z,98123.00
2022-11-24T21:04:18.324Z,98110.13
2022-11-24T21:07:21.515Z,98102.81
2022-11-24T21:10:24.714Z,98117.78
2022-11-24T21:13:29.636Z,98102.00
2022-11-24T21:16:34.668Z,98086.50
2022-11-24T21:19:38.442Z,98094.78
2022-11-24T21:22:41.738Z,98051.84
2022-11-24T21:25:45.049Z,98122.75
2022-11-24T21:28:51.663Z,98125.25
2022-11-24T21:31:54.962Z,98125.63
2022-11-24T21:34:58.403Z,98108.75
2022-11-24T21:38:01.842Z,98118.78
2022-11-24T21:41:08.442Z,98121.50
2022-11-24T21:44:17.021Z,98111.09
2022-11-24T21:47:25.632Z,98107.09
2022-11-24T21:50:29.642Z,98100.44
2022-11-24T21:53:38.480Z,98131.84
2022-11-24T21:56:45.208Z,98057.66
2022-11-24T21:59:53.365Z,98117.00
2022-11-24T22:03:11.815Z,98019.38
2022-11-24T22:06:35.691Z,97975.91
2022-11-24T22:10:03.874Z,97782.38
2022-11-24T22:13:28.166Z,98123.78
2022-11-24T22:17:04.326Z,97889.69
2022-11-24T22:20:41.405Z,98065.94
2022-11-24T22:23:49.223Z,97778.47
2022-11-24T22:27:05.589Z,98044.28
2022-11-24T22:30:20.548Z,97991.88
2022-11-24T22:35:01.223Z,98121.94
2022-11-24T22:38:04.451Z,98121.25
2022-11-24T22:41:10.049Z,98125.44
2022-11-24T22:44:13.584Z,98115.63
2022-11-24T22:47:16.820Z,98114.75
2022-11-24T22:50:21.803Z,98110.56
2022-11-24T22:53:25.005Z,98110.56
2022-11-24T22:56:32.116Z,98120.88
2022-11-24T22:59:53.952Z,98110.72
2022-11-24T23:02:57.224Z,98110.63
2022-11-24T23:06:03.145Z,98109.25
2022-11-24T23:09:07.899Z,98117.75
2022-11-24T23:12:13.596Z,98111.91
2022-11-24T23:15:17.218Z,98113.78
2022-11-24T23:18:20.442Z,98107.88
2022-11-24T23:21:26.820Z,98107.03
2022-11-24T23:24:30.217Z,98107.88
2022-11-24T23:27:33.621Z,98105.34
2022-11-24T23:30:36.960Z,98117.38
2022-11-24T23:33:40.806Z,98124.25
2022-11-24T23:36:45.443Z,98115.81
2022-11-24T23:39:49.479Z,98123.50
2022-11-24T23:42:53.051Z,98121.75
2022-11-24T23:46:01.915Z,98119.25
2022-11-24T23:49:05.504Z,98115.88
2022-11-24T23:52:10.136Z,98107.44
2022-11-24T23:55:13.404Z,98116.78
2022-11-24T23:58:16.772Z,98110.03
